createdAt,value
2018-07-24T00:01:53.913Z,16.30
2018-07-24T00:09:18.909Z,16.10
2018-07-24T00:14:15.993Z,16.00
2018-07-24T00:16:44.292Z,16.00
2018-07-24T00:19:12.715Z,16.00
2018-07-24T00:26:37.298Z,15.90
2018-07-24T00:29:05.786Z,15.90
2018-07-24T00:31:34.116Z,15.80
2018-07-24T00:34:08.551Z,15.80
2018-07-24T00:36:39.092Z,15.80
2018-07-24T00:39:08.012Z,15.80
2018-07-24T00:41:36.638Z,15.70
2018-07-24T00:44:05.391Z,15.70
2018-07-24T00:46:33.583Z,15.70
2018-07-24T00:49:02.114Z,15.60
2018-07-24T00:51:30.450Z,15.60
2018-07-24T00:54:02.382Z,15.60
2018-07-24T00:56:30.702Z,15.60
2018-07-24T00:58:59.877Z,15.60
2018-07-24T01:01:29.006Z,15.50
2018-07-24T01:06:27.342Z,15.50
2018-07-24T01:08:55.632Z,15.50
2018-07-24T01:13:51.946Z,15.40
2018-07-24T01:16:20.442Z,15.30
2018-07-24T01:18:48.825Z,15.30
2018-07-24T01:21:17.236Z,15.30
2018-07-24T01:23:45.413Z,15.20
2018-07-24T01:26:13.716Z,15.30
2018-07-24T01:28:42.036Z,15.20
2018-07-24T01:31:10.411Z,15.20
2018-07-24T01:33:38.702Z,15.30
2018-07-24T01:36:07.116Z,15.20
2018-07-24T01:38:35.579Z,15.20
2018-07-24T01:41:10.063Z,15.20
2018-07-24T01:43:38.372Z,15.20
2018-07-24T01:46:06.863Z,15.10
2018-07-24T01:48:35.146Z,15.10
2018-07-24T01:51:05.265Z,15.00
2018-07-24T01:53:33.698Z,15.00
2018-07-24T01:56:01.893Z,15.00
2018-07-24T01:58:30.267Z,15.00
2018-07-24T02:06:00.312Z,15.00
2018-07-24T02:08:28.668Z,15.00
2018-07-24T02:10:57.056Z,15.00
2018-07-24T02:13:25.268Z,15.00
2018-07-24T02:15:53.595Z,14.90
2018-07-24T02:20:53.664Z,14.90
2018-07-24T02:23:22.062Z,14.90
2018-07-24T02:25:50.342Z,14.90
2018-07-24T02:30:48.882Z,14.90
2018-07-24T02:33:17.162Z,14.80
2018-07-24T02:35:45.418Z,14.80
2018-07-24T02:38:13.567Z,14.80
2018-07-24T02:43:15.907Z,14.70
2018-07-24T02:45:44.208Z,14.70
2018-07-24T02:48:12.582Z,14.60
2018-07-24T02:50:48.773Z,14.60
2018-07-24T02:53:17.189Z,14.60
2018-07-24T02:55:45.678Z,14.60
2018-07-24T02:58:14.163Z,14.60
2018-07-24T03:00:42.332Z,14.60
2018-07-24T03:03:10.475Z,14.60
2018-07-24T03:05:38.770Z,14.60
2018-07-24T03:08:07.152Z,14.50
2018-07-24T03:10:35.443Z,14.50
2018-07-24T03:13:03.718Z,14.50
2018-07-24T03:15:32.144Z,14.50
2018-07-24T03:18:00.566Z,14.50
2018-07-24T03:20:28.756Z,14.50
2018-07-24T03:22:57.060Z,14.50
2018-07-24T03:25:31.242Z,14.50
2018-07-24T03:27:59.679Z,14.40
2018-07-24T03:30:27.866Z,14.40
2018-07-24T03:40:21.065Z,14.50
2018-07-24T03:45:17.368Z,14.50
2018-07-24T03:47:45.645Z,14.50
2018-07-24T03:57:38.624Z,14.70
2018-07-24T04:02:38.730Z,14.70
2018-07-24T04:05:07.110Z,14.80
2018-07-24T04:07:36.328Z,14.80
2018-07-24T04:10:04.522Z,14.90
2018-07-24T04:12:37.151Z,14.90
2018-07-24T04:15:06.304Z,15.00
2018-07-24T04:17:35.084Z,15.10
2018-07-24T04:20:03.428Z,15.10
2018-07-24T04:22:31.825Z,15.30
2018-07-24T04:27:27.992Z,16.30
2018-07-24T04:29:56.479Z,16.90
2018-07-24T04:32:24.694Z,17.20
2018-07-24T04:34:52.797Z,18.00
2018-07-24T04:37:21.831Z,18.90
2018-07-24T04:39:50.539Z,19.90
2018-07-24T04:42:19.005Z,21.00
2018-07-24T04:47:15.524Z,22.60
2018-07-24T04:54:50.719Z,24.80
2018-07-24T04:57:19.259Z,25.50
2018-07-24T04:59:47.530Z,26.10
2018-07-24T05:02:19.516Z,26.60
2018-07-24T05:04:47.940Z,27.30
2018-07-24T05:07:16.439Z,27.90
2018-07-24T05:09:44.949Z,28.40
2018-07-24T05:12:13.302Z,28.70
2018-07-24T05:14:41.612Z,28.90
2018-07-24T05:17:10.126Z,29.20
2018-07-24T05:24:38.105Z,29.90
2018-07-24T05:27:10.161Z,30.40
2018-07-24T05:29:38.457Z,30.70
2018-07-24T05:32:07.666Z,31.10
2018-07-24T05:37:10.913Z,31.80
2018-07-24T05:42:07.713Z,32.50
2018-07-24T05:49:32.328Z,34.10
2018-07-24T05:52:00.604Z,34.50
2018-07-24T05:56:58.409Z,35.60
2018-07-24T05:59:26.836Z,36.20
2018-07-24T06:01:55.458Z,36.90
2018-07-24T06:04:24.558Z,37.50
2018-07-24T06:06:52.962Z,38.00
2018-07-24T06:09:21.238Z,38.20
2018-07-24T06:14:17.421Z,38.40
2018-07-24T06:16:46.048Z,38.40
2018-07-24T06:19:14.650Z,38.60
2018-07-24T06:21:43.105Z,38.90
2018-07-24T06:24:11.329Z,39.10
2018-07-24T06:26:39.854Z,39.00
2018-07-24T06:29:08.288Z,38.90
2018-07-24T06:31:36.651Z,38.80
2018-07-24T06:34:05.167Z,38.70
2018-07-24T06:36:33.551Z,38.70
2018-07-24T06:41:30.132Z,39.30
2018-07-24T06:48:58.602Z,40.30
2018-07-24T06:53:55.107Z,40.90
2018-07-24T06:56:23.582Z,41.40
2018-07-24T06:58:52.109Z,41.60
2018-07-24T07:01:20.548Z,41.80
2018-07-24T07:03:48.801Z,42.30
2018-07-24T07:06:17.415Z,42.70
2018-07-24T07:08:45.831Z,42.90
2018-07-24T07:11:17.893Z,43.00
2018-07-24T07:16:14.101Z,44.20
2018-07-24T07:18:42.443Z,44.80
2018-07-24T07:21:10.963Z,45.60
2018-07-24T07:23:39.380Z,46.20
2018-07-24T07:26:07.692Z,46.70
2018-07-24T07:28:36.070Z,47.10
2018-07-24T07:33:32.471Z,47.70
2018-07-24T07:36:00.766Z,47.80
2018-07-24T07:38:29.166Z,47.80
2018-07-24T07:40:57.670Z,47.70
2018-07-24T07:43:25.971Z,47.60
2018-07-24T07:45:54.287Z,47.70
2018-07-24T07:48:22.765Z,47.80
2018-07-24T07:50:51.196Z,47.90
2018-07-24T07:53:19.859Z,47.80
2018-07-24T07:58:15.906Z,47.70
2018-07-24T08:00:43.831Z,47.80
2018-07-24T08:05:39.577Z,47.90
2018-07-24T08:08:07.503Z,47.80
2018-07-24T08:13:03.333Z,47.80
2018-07-24T08:15:31.285Z,47.50
2018-07-24T08:17:59.624Z,46.80
2018-07-24T08:20:28.031Z,46.40
2018-07-24T08:22:57.612Z,45.90
2018-07-24T08:25:25.985Z,45.30
2018-07-24T08:30:24.758Z,44.50
2018-07-24T08:32:53.041Z,43.80
2018-07-24T08:35:21.986Z,42.30
2018-07-24T08:37:50.865Z,40.40
2018-07-24T08:40:19.784Z,38.90
2018-07-24T08:42:48.483Z,37.70
2018-07-24T08:45:17.267Z,36.50
2018-07-24T08:47:45.606Z,35.30
2018-07-24T08:50:14.213Z,34.40
2018-07-24T08:52:43.267Z,33.60
2018-07-24T08:55:11.980Z,33.00
2018-07-24T08:57:40.187Z,32.60
2018-07-24T09:00:09.095Z,32.10
2018-07-24T09:02:37.211Z,31.70
2018-07-24T09:07:33.685Z,31.10
2018-07-24T09:10:02.308Z,30.70
2018-07-24T09:12:30.515Z,30.40
2018-07-24T09:14:58.771Z,30.10
2018-07-24T09:17:27.301Z,29.90
2018-07-24T09:19:55.603Z,29.60
2018-07-24T09:27:20.555Z,29.20
2018-07-24T09:29:49.415Z,29.20
2018-07-24T09:32:17.716Z,29.10
2018-07-24T09:34:45.990Z,29.10
2018-07-24T09:42:10.276Z,29.30
2018-07-24T09:47:06.734Z,29.20
2018-07-24T09:49:35.117Z,29.20
2018-07-24T09:52:03.580Z,29.20
2018-07-24T09:54:31.856Z,29.10
2018-07-24T09:59:29.025Z,28.90
2018-07-24T10:01:57.383Z,28.90
2018-07-24T10:04:25.639Z,28.90
2018-07-24T10:06:54.255Z,29.10
2018-07-24T10:09:23.174Z,29.10
2018-07-24T10:14:19.791Z,29.30
2018-07-24T10:16:48.238Z,29.20
2018-07-24T10:19:17.302Z,29.20
2018-07-24T10:21:45.682Z,28.90
2018-07-24T10:24:14.184Z,28.90
2018-07-24T10:29:11.157Z,29.00
2018-07-24T10:31:39.712Z,28.90
2018-07-24T10:34:07.942Z,28.90
2018-07-24T10:36:36.302Z,28.80
2018-07-24T10:39:08.386Z,28.90
2018-07-24T10:41:36.874Z,28.90
2018-07-24T10:46:33.376Z,29.00
2018-07-24T10:49:01.563Z,29.10
2018-07-24T10:57:21.619Z,29.20
2018-07-24T10:59:50.491Z,29.40
2018-07-24T11:02:18.795Z,29.50
2018-07-24T11:09:43.272Z,29.30
2018-07-24T11:14:39.644Z,29.20
2018-07-24T11:17:08.574Z,29.20
2018-07-24T11:19:37.064Z,29.20
2018-07-24T11:22:05.751Z,29.20
2018-07-24T11:24:34.067Z,29.30
2018-07-24T11:27:02.485Z,29.30
2018-07-24T11:29:30.867Z,29.30
2018-07-24T11:31:59.264Z,29.20
2018-07-24T11:34:27.581Z,29.30
2018-07-24T11:44:19.725Z,29.50
2018-07-24T11:46:47.923Z,29.50
2018-07-24T11:49:16.209Z,29.40
2018-07-24T11:51:44.900Z,29.40
2018-07-24T11:54:13.350Z,29.40
2018-07-24T11:56:41.769Z,29.50
2018-07-24T11:59:09.944Z,29.60
2018-07-24T12:04:06.554Z,29.50
2018-07-24T12:06:35.430Z,29.50
2018-07-24T12:09:05.786Z,29.40
2018-07-24T12:11:34.246Z,29.30
2018-07-24T12:14:02.671Z,29.40
2018-07-24T12:16:31.100Z,29.40
2018-07-24T12:18:59.471Z,29.50
2018-07-24T12:21:27.789Z,29.50
2018-07-24T12:26:24.075Z,29.60
2018-07-24T12:28:52.540Z,29.70
2018-07-24T12:31:21.188Z,29.60
2018-07-24T12:33:49.349Z,29.60
2018-07-24T12:36:17.903Z,29.60
2018-07-24T12:38:46.396Z,29.70
2018-07-24T12:41:14.693Z,29.80
2018-07-24T12:43:43.395Z,29.90
2018-07-24T12:46:11.691Z,29.90
2018-07-24T12:48:40.076Z,29.80
2018-07-24T12:51:08.669Z,29.70
2018-07-24T12:53:36.764Z,29.50
2018-07-24T12:56:05.079Z,29.40
2018-07-24T12:58:34.076Z,29.40
2018-07-24T13:03:31.689Z,29.60
2018-07-24T13:08:28.133Z,29.80
2018-07-24T13:10:56.410Z,29.70
2018-07-24T13:13:24.880Z,29.70
2018-07-24T13:15:53.278Z,29.70
2018-07-24T13:18:21.722Z,29.60
2018-07-24T13:20:50.628Z,29.60
2018-07-24T13:23:19.492Z,29.50
2018-07-24T13:25:47.809Z,29.40
2018-07-24T13:28:16.006Z,29.30
2018-07-24T13:33:13.223Z,29.30
2018-07-24T13:35:41.485Z,29.40
2018-07-24T13:38:09.693Z,29.40
2018-07-24T13:40:38.308Z,29.50
2018-07-24T13:43:06.796Z,29.50
2018-07-24T13:45:35.224Z,29.60
2018-07-24T13:48:04.018Z,29.70
2018-07-24T13:50:32.321Z,29.70
2018-07-24T13:53:00.502Z,29.70
2018-07-24T13:57:56.889Z,29.70
2018-07-24T14:02:53.423Z,29.50
2018-07-24T14:05:21.940Z,29.40
2018-07-24T14:07:50.158Z,29.40
2018-07-24T14:10:18.688Z,29.40
2018-07-24T14:12:47.080Z,29.50
2018-07-24T14:15:15.534Z,29.50
2018-07-24T14:17:44.295Z,29.60
2018-07-24T14:20:12.701Z,29.60
2018-07-24T14:25:09.290Z,29.50
2018-07-24T14:27:38.337Z,29.50
2018-07-24T14:30:07.411Z,29.50
2018-07-24T14:32:35.839Z,29.50
2018-07-24T14:35:04.364Z,29.50
2018-07-24T14:37:32.725Z,29.50
2018-07-24T14:40:00.860Z,29.60
2018-07-24T14:42:29.063Z,29.50
2018-07-24T14:44:57.391Z,29.50
2018-07-24T14:47:25.721Z,29.50
2018-07-24T14:52:22.387Z,29.50
2018-07-24T14:54:50.742Z,29.50
2018-07-24T14:57:19.294Z,29.50
2018-07-24T14:59:47.828Z,29.50
2018-07-24T15:02:16.247Z,29.50
2018-07-24T15:04:44.630Z,29.50
2018-07-24T15:07:13.024Z,29.50
2018-07-24T15:09:41.366Z,29.50
2018-07-24T15:12:09.901Z,29.40
2018-07-24T15:17:08.435Z,29.40
2018-07-24T15:22:05.380Z,29.30
2018-07-24T15:24:33.670Z,29.30
2018-07-24T15:27:02.176Z,29.20
2018-07-24T15:29:30.846Z,29.20
2018-07-24T15:31:59.259Z,29.20
2018-07-24T15:36:55.971Z,29.10
2018-07-24T15:39:24.487Z,29.20
2018-07-24T15:41:52.961Z,29.20
2018-07-24T15:49:17.771Z,29.00
2018-07-24T15:51:45.953Z,29.00
2018-07-24T15:56:42.466Z,29.00
2018-07-24T15:59:10.987Z,29.00
2018-07-24T16:01:39.670Z,29.00
2018-07-24T16:04:08.010Z,29.00
2018-07-24T16:06:36.438Z,29.00
2018-07-24T16:09:07.625Z,29.00
2018-07-24T16:11:36.316Z,29.00
2018-07-24T16:14:04.724Z,28.90
2018-07-24T16:16:33.478Z,28.80
2018-07-24T16:19:02.404Z,28.80
2018-07-24T16:21:30.786Z,28.70
2018-07-24T16:23:59.264Z,28.70
2018-07-24T16:26:27.816Z,28.60
2018-07-24T16:28:56.331Z,28.60
2018-07-24T16:31:24.833Z,28.60
2018-07-24T16:33:53.152Z,28.50
2018-07-24T16:36:21.504Z,28.50
2018-07-24T16:38:50.385Z,28.50
2018-07-24T16:41:19.059Z,28.40
2018-07-24T16:46:44.606Z,28.30
2018-07-24T16:49:13.414Z,28.30
2018-07-24T16:54:21.772Z,28.20
2018-07-24T16:56:50.314Z,28.10
2018-07-24T16:59:18.940Z,28.00
2018-07-24T17:01:47.482Z,28.00
2018-07-24T17:04:19.714Z,27.90
2018-07-24T17:06:48.268Z,27.80
2018-07-24T17:09:16.549Z,27.80
2018-07-24T17:11:45.081Z,27.70
2018-07-24T17:14:29.013Z,27.70
2018-07-24T17:16:57.697Z,27.60
2018-07-24T17:21:55.152Z,27.50
2018-07-24T17:24:25.893Z,27.40
2018-07-24T17:26:54.823Z,27.40
2018-07-24T17:29:23.520Z,27.30
2018-07-24T17:31:53.981Z,27.30
2018-07-24T17:34:22.468Z,27.30
2018-07-24T17:36:51.059Z,27.20
2018-07-24T17:39:19.567Z,27.20
2018-07-24T17:41:47.913Z,27.10
2018-07-24T17:44:16.258Z,27.00
2018-07-24T17:46:44.625Z,27.00
2018-07-24T17:49:15.354Z,26.90
2018-07-24T17:51:44.020Z,26.90
2018-07-24T17:54:12.577Z,26.80
2018-07-24T17:56:40.955Z,26.70
2018-07-24T17:59:09.358Z,26.60
2018-07-24T18:01:38.773Z,26.60
2018-07-24T18:04:07.449Z,26.50
2018-07-24T18:06:35.943Z,26.40
2018-07-24T18:09:12.134Z,26.30
2018-07-24T18:11:40.663Z,26.20
2018-07-24T18:14:09.643Z,26.20
2018-07-24T18:16:41.427Z,26.10
2018-07-24T18:19:09.895Z,26.00
2018-07-24T18:21:38.517Z,25.90
2018-07-24T18:24:07.917Z,25.90
2018-07-24T18:29:08.229Z,25.70
2018-07-24T18:31:36.796Z,25.60
2018-07-24T18:34:06.818Z,25.50
2018-07-24T18:36:35.650Z,25.50
2018-07-24T18:39:06.125Z,25.40
2018-07-24T18:41:35.092Z,25.30
2018-07-24T18:44:03.787Z,25.20
2018-07-24T18:49:00.906Z,24.90
2018-07-24T18:51:29.492Z,24.80
2018-07-24T18:53:57.832Z,24.70
2018-07-24T18:56:27.805Z,24.50
2018-07-24T18:58:56.412Z,24.40
2018-07-24T19:01:24.653Z,24.20
2018-07-24T19:06:23.790Z,24.00
2018-07-24T19:08:52.459Z,23.90
2018-07-24T19:11:21.658Z,23.70
2018-07-24T19:13:50.559Z,23.60
2018-07-24T19:16:19.254Z,23.50
2018-07-24T19:18:48.324Z,23.30
2018-07-24T19:21:17.078Z,23.20
2018-07-24T19:23:51.837Z,23.10
2018-07-24T19:26:20.527Z,23.00
2018-07-24T19:28:49.294Z,22.90
2018-07-24T19:31:17.908Z,22.80
2018-07-24T19:33:46.443Z,22.80
2018-07-24T19:36:14.827Z,22.70
2018-07-24T19:38:43.474Z,22.60
2018-07-24T19:41:19.414Z,22.40
2018-07-24T19:43:48.018Z,22.40
2018-07-24T19:46:16.320Z,22.30
2018-07-24T19:51:14.727Z,22.20
2018-07-24T19:53:43.251Z,22.10
2018-07-24T19:56:11.583Z,22.10
2018-07-24T19:58:43.253Z,22.00
2018-07-24T20:01:11.525Z,21.90
2018-07-24T20:03:40.160Z,21.90
2018-07-24T20:06:13.129Z,21.80
2018-07-24T20:08:41.938Z,21.80
2018-07-24T20:11:10.759Z,21.70
2018-07-24T20:13:39.218Z,21.70
2018-07-24T20:18:37.698Z,21.60
2018-07-24T20:21:06.393Z,21.50
2018-07-24T20:23:35.569Z,21.50
2018-07-24T20:26:05.416Z,21.40
2018-07-24T20:28:33.854Z,21.40
2018-07-24T20:31:02.479Z,21.40
2018-07-24T20:33:31.790Z,21.30
2018-07-24T20:36:00.698Z,21.30
2018-07-24T20:38:29.812Z,21.20
2018-07-24T20:40:59.084Z,21.20
2018-07-24T20:43:27.795Z,21.20
2018-07-24T20:53:45.114Z,21.10
2018-07-24T20:56:13.953Z,21.00
2018-07-24T20:58:46.048Z,21.00
2018-07-24T21:01:16.497Z,21.00
2018-07-24T21:03:45.287Z,21.00
2018-07-24T21:06:16.149Z,21.00
2018-07-24T21:08:53.609Z,20.90
2018-07-24T21:11:25.715Z,20.90
2018-07-24T21:16:26.207Z,20.90
2018-07-24T21:18:54.949Z,20.90
2018-07-24T21:21:24.216Z,20.90
2018-07-24T21:24:06.220Z,20.90
2018-07-24T21:26:35.378Z,20.80
2018-07-24T21:29:04.687Z,20.80
2018-07-24T21:31:33.740Z,20.80
2018-07-24T21:34:02.819Z,20.80
2018-07-24T21:36:31.329Z,20.70
2018-07-24T21:38:59.831Z,20.70
2018-07-24T21:41:29.029Z,20.60
2018-07-24T21:43:57.976Z,20.60
2018-07-24T21:46:26.541Z,20.60
2018-07-24T21:48:55.150Z,20.50
2018-07-24T21:51:24.193Z,20.50
2018-07-24T21:54:03.705Z,20.50
2018-07-24T21:56:32.593Z,20.50
2018-07-24T21:59:00.997Z,20.40
2018-07-24T22:01:29.415Z,20.40
2018-07-24T22:03:57.707Z,20.30
2018-07-24T22:06:26.142Z,20.30
2018-07-24T22:08:58.574Z,20.20
2018-07-24T22:11:26.880Z,20.20
2018-07-24T22:13:55.192Z,20.10
2018-07-24T22:16:30.874Z,20.10
2018-07-24T22:18:59.136Z,20.00
2018-07-24T22:21:27.556Z,20.00
2018-07-24T22:23:56.056Z,20.00
2018-07-24T22:28:52.565Z,19.90
2018-07-24T22:31:20.637Z,19.90
2018-07-24T22:36:18.151Z,19.80
2018-07-24T22:38:46.769Z,19.80
2018-07-24T22:41:15.045Z,19.70
2018-07-24T22:43:43.133Z,19.70
2018-07-24T22:46:11.451Z,19.70
2018-07-24T22:48:39.727Z,19.70
2018-07-24T22:51:08.133Z,19.60
2018-07-24T22:53:36.521Z,19.60
2018-07-24T22:56:08.828Z,19.60
2018-07-24T22:58:37.210Z,19.60
2018-07-24T23:01:05.622Z,19.50
2018-07-24T23:03:33.930Z,19.50
2018-07-24T23:08:35.719Z,19.40
2018-07-24T23:11:04.149Z,19.40
2018-07-24T23:13:32.647Z,19.30
2018-07-24T23:16:07.673Z,19.30
2018-07-24T23:18:35.987Z,19.20
2018-07-24T23:23:32.461Z,19.10
2018-07-24T23:28:28.827Z,19.00
2018-07-24T23:30:57.080Z,19.00
2018-07-24T23:33:25.968Z,18.90
2018-07-24T23:35:54.167Z,18.90
2018-07-24T23:40:50.554Z,18.80
2018-07-24T23:43:18.934Z,18.80
2018-07-24T23:45:51.130Z,18.70
2018-07-24T23:48:19.530Z,18.70
2018-07-24T23:50:48.444Z,18.70
2018-07-24T23:53:16.938Z,18.60
2018-07-24T23:55:45.544Z,18.60
2018-07-24T23:58:14.001Z,18.60
